Time;durP1;ratioP1;P1;durP2;ratioP2;P2;SDS_P1;SDS_P2;PMS_P1;PMS_P2;Temp;Humidity;BMP_temperature;BMP_pressure;BME280_temperature;BME280_humidity;BME280_pressure;Samples;Min_cycle;Max_cycle;Signal;HPM_P1;HPM_P2
2021/08/22 00:01:07;;;;;;;7.50;5.40;;;;;;;29.00;37.55;101064.41;112282;1222;60993;-87
2021/08/22 00:03:48;;;;;;;7.50;5.50;;;;;;;29.00;37.46;101064.58;112540;1219;61150;-84
2021/08/22 00:06:17;;;;;;;7.80;5.60;;;;;;;29.00;37.70;101063.70;112589;1219;62996;-85
2021/08/22 00:08:59;;;;;;;7.10;5.10;;;;;;;28.99;37.40;101061.93;112246;1218;65791;-88
2021/08/22 00:11:41;;;;;;;7.10;5.20;;;;;;;28.99;37.44;101057.63;112547;1219;61037;-87
2021/08/22 00:14:07;;;;;;;7.80;5.20;;;;;;;28.99;37.53;101057.61;112546;1223;61008;-85
2021/08/22 00:16:55;;;;;;;;;;;;;;;;;;;;;
2021/08/22 00:19:29;;;;;;;7.00;5.20;;;;;;;28.99;37.59;101054.05;112525;1215;65721;-92
2021/08/22 00:22:11;;;;;;;;;;;;;;;;;;;;;
2021/08/22 00:24:43;;;;;;;8.30;5.60;;;;;;;28.98;37.61;101058.95;112549;1219;60932;-90
2021/08/22 00:27:11;;;;;;;7.50;4.80;;;;;;;28.98;37.52;101054.63;112188;1219;61061;-84
2021/08/22 00:30:01;;;;;;;7.70;5.30;;;;;;;28.98;37.58;101057.02;112313;1216;64534;-85
2021/08/22 00:32:32;;;;;;;6.80;5.00;;;;;;;28.97;37.70;101052.52;112567;1216;61009;-90
2021/08/22 00:35:16;;;;;;;7.40;5.20;;;;;;;28.97;37.90;101050.17;112586;1217;61102;-86
2021/08/22 00:37:51;;;;;;;8.10;5.30;;;;;;;28.97;37.78;101047.80;112917;1220;64733;-85
2021/08/22 00:40:37;;;;;;;6.80;5.30;;;;;;;28.98;37.91;101051.79;112926;1212;66612;-89
2021/08/22 00:43:15;;;;;;;6.50;5.10;;;;;;;28.97;37.97;101053.61;112977;1219;61134;-88
2021/08/22 00:45:57;;;;;;;;;;;;;;;;;;;;;
2021/08/22 00:48:26;;;;;;;8.30;5.40;;;;;;;28.97;37.89;101054.02;112860;1222;64046;-84
2021/08/22 00:51:06;;;;;;;7.60;5.60;;;;;;;28.97;37.91;101051.10;112909;1211;65703;-89
2021/08/22 00:53:39;;;;;;;9.00;5.60;;;;;;;28.97;37.97;101049.50;112972;1219;60970;-90
2021/08/22 00:56:21;;;;;;;7.30;5.40;;;;;;;28.97;37.94;101050.98;112961;1212;60983;-86
2021/08/22 00:59:05;;;;;;;8.00;5.50;;;;;;;28.97;38.02;101051.71;112965;1218;64771;-83
2021/08/22 01:01:41;;;;;;;7.00;5.20;;;;;;;28.96;37.95;101054.08;112819;1214;66825;-84
2021/08/22 01:04:30;;;;;;;6.40;5.20;;;;;;;28.97;38.00;101060.94;112927;1219;61031;-86
2021/08/22 01:07:20;;;;;;;6.50;4.90;;;;;;;28.96;37.92;101057.88;112950;1213;61398;-87
2021/08/22 01:10:02;;;;;;;9.00;5.30;;;;;;;28.96;38.02;101053.77;112938;1211;63609;-82
2021/08/22 01:12:58;;;;;;;7.50;5.00;;;;;;;28.96;38.15;101054.15;112936;1215;65747;-84
2021/08/22 01:15:38;;;;;;;7.90;5.10;;;;;;;28.96;37.94;101060.84;112914;1220;60982;-88
2021/08/22 01:18:04;;;;;;;7.10;5.30;;;;;;;28.95;37.85;101060.32;112958;1220;60929;-86
2021/08/22 01:20:49;;;;;;;7.60;5.20;;;;;;;28.96;38.23;101060.66;112635;1219;60950;-88
2021/08/22 01:23:15;;;;;;;7.00;5.50;;;;;;;28.96;38.12;101058.70;112978;1218;65752;-84
2021/08/22 01:25:49;;;;;;;7.80;5.50;;;;;;;28.96;38.10;101060.66;112863;1214;61043;-86
2021/08/22 01:28:14;;;;;;;7.70;5.20;;;;;;;28.95;38.11;101056.35;112918;1219;61701;-91
2021/08/22 01:31:02;;;;;;;7.10;5.40;;;;;;;28.95;38.02;101056.73;112961;1213;61069;-87
2021/08/22 01:33:31;;;;;;;7.10;5.20;;;;;;;28.95;38.08;101055.31;112943;1212;66899;-90
2021/08/22 01:36:06;;;;;;;6.60;4.90;;;;;;;28.95;38.17;101057.46;112867;1213;60973;-89
2021/08/22 01:38:41;;;;;;;6.90;5.40;;;;;;;28.95;38.14;101060.02;112895;1220;60928;-86
2021/08/22 01:41:07;;;;;;;9.10;5.10;;;;;;;28.94;38.21;101061.69;112916;1219;63796;-85
2021/08/22 01:43:35;;;;;;;6.80;4.90;;;;;;;28.95;38.13;101066.02;112908;1214;60938;-84
2021/08/22 01:46:06;;;;;;;6.10;5.20;;;;;;;28.95;38.02;101065.61;112913;1220;60995;-84
2021/08/22 01:48:37;;;;;;;7.90;5.60;;;;;;;28.95;38.25;101063.82;112928;1211;60960;-87
2021/08/22 01:51:15;;;;;;;6.60;5.30;;;;;;;28.95;38.26;101065.48;112910;1214;64775;-83
2021/08/22 01:54:08;;;;;;;;;;;;;;;;;;;;;
2021/08/22 01:56:37;;;;;;;6.90;5.10;;;;;;;28.94;38.27;101062.84;112920;1214;61025;-87
2021/08/22 01:59:06;;;;;;;7.50;5.40;;;;;;;28.94;38.25;101062.09;112846;1219;60946;-86
2021/08/22 02:01:34;;;;;;;7.60;5.50;;;;;;;28.94;38.27;101064.96;112683;1213;63569;-86
2021/08/22 02:04:20;;;;;;;6.80;4.90;;;;;;;28.94;38.20;101068.26;112922;1214;65507;-86
2021/08/22 02:06:51;;;;;;;7.30;5.40;;;;;;;28.94;38.41;101071.89;112971;1216;60958;-87
2021/08/22 02:09:32;;;;;;;6.80;5.20;;;;;;;28.93;38.13;101069.55;112950;1220;60961;-86
2021/08/22 02:12:29;;;;;;;7.50;5.40;;;;;;;28.93;38.34;101068.33;112932;1216;64153;-84
2021/08/22 02:15:18;;;;;;;7.80;5.40;;;;;;;28.93;38.55;101071.63;112868;1220;64658;-86
2021/08/22 02:18:01;;;;;;;;;;;;;;;28.93;38.66;101073.42;112850;1213;61069;-85
2021/08/22 02:20:39;;;;;;;7.60;5.30;;;;;;;28.91;38.65;101074.35;112960;1219;61543;-84
2021/08/22 02:23:12;;;;;;;7.60;5.40;;;;;;;28.91;38.62;101079.00;112694;1213;72591;-84
2021/08/22 02:25:52;;;;;;;7.80;5.00;;;;;;;28.91;38.52;101081.21;112907;1220;65646;-85
2021/08/22 02:28:50;;;;;;;;;;;;;;;;;;;;;
2021/08/22 02:31:32;;;;;;;7.70;5.30;;;;;;;28.91;38.36;101081.56;112925;1214;60928;-88
2021/08/22 02:34:07;;;;;;;7.00;5.20;;;;;;;28.91;38.40;101084.48;112903;1214;63737;-90
2021/08/22 02:36:36;;;;;;;7.40;5.20;;;;;;;28.92;38.68;101082.95;112908;1214;66762;-85
2021/08/22 02:39:13;;;;;;;7.90;5.20;;;;;;;28.91;38.42;101081.54;112949;1219;60949;-82
2021/08/22 02:41:44;;;;;;;7.50;5.40;;;;;;;28.91;38.35;101079.92;112922;1219;60934;-87
2021/08/22 02:44:30;;;;;;;8.20;5.20;;;;;;;28.92;38.42;101081.49;112904;1213;64818;-84
2021/08/22 02:46:59;;;;;;;8.90;4.90;;;;;;;28.91;38.67;101083.39;112963;1218;66819;-87
2021/08/22 02:49:29;;;;;;;;;;;;;;;28.91;38.45;101086.11;112941;1213;60958;-85
2021/08/22 02:52:04;;;;;;;8.40;5.10;;;;;;;28.89;38.41;101083.20;113007;1211;60964;-88
2021/08/22 02:54:32;;;;;;;6.60;4.70;;;;;;;28.90;38.58;101080.25;112913;1219;64747;-88
2021/08/22 02:56:58;;;;;;;;;;;;;;;28.90;38.68;101080.08;112978;1218;66876;-87
2021/08/22 02:59:33;;;;;;;6.40;4.90;;;;;;;28.88;38.59;101077.36;112935;1214;61066;-88
2021/08/22 03:02:01;;;;;;;8.20;5.30;;;;;;;28.88;38.65;101081.66;112840;1219;61017;-88
2021/08/22 03:04:36;;;;;;;7.10;5.10;;;;;;;28.89;38.62;101082.16;112967;1212;60961;-89
2021/08/22 03:07:02;;;;;;;6.70;4.70;;;;;;;28.89;38.69;101082.35;112924;1213;67368;-84
2021/08/22 03:09:36;;;;;;;7.60;5.10;;;;;;;28.89;38.72;101082.34;112978;1219;62163;-83
2021/08/22 03:12:23;;;;;;;6.70;4.80;;;;;;;28.88;38.68;101080.95;112557;1222;61278;-87
2021/08/22 03:14:54;;;;;;;7.00;5.20;;;;;;;28.89;38.88;101079.83;112519;1223;63594;-87
2021/08/22 03:17:22;;;;;;;6.20;5.10;;;;;;;28.88;38.66;101076.77;112319;1224;66475;-85
2021/08/22 03:19:48;;;;;;;6.90;5.10;;;;;;;28.89;38.66;101079.45;112288;1223;61164;-88
2021/08/22 03:22:23;;;;;;;8.10;5.00;;;;;;;28.89;38.68;101083.27;112551;1215;59166;-84
2021/08/22 03:25:02;;;;;;;;;;;;;;;;;;;;;
2021/08/22 03:27:41;;;;;;;7.10;4.90;;;;;;;28.89;38.70;101087.06;112323;1223;66782;-82
2021/08/22 03:30:18;;;;;;;6.40;5.10;;;;;;;28.88;38.89;101089.84;112568;1223;60929;-86
2021/08/22 03:32:59;;;;;;;;;;;;;;;;;;;;;
2021/08/22 03:35:28;;;;;;;7.80;5.70;;;;;;;28.88;38.97;101091.81;112507;1222;64581;-85
2021/08/22 03:37:54;;;;;;;8.10;5.40;;;;;;;28.89;38.96;101097.04;112563;1222;65751;-85
2021/08/22 03:40:19;;;;;;;6.50;4.90;;;;;;;28.89;38.93;101098.10;112649;1217;60951;-82
2021/08/22 03:42:45;;;;;;;8.00;5.50;;;;;;;28.89;38.76;101098.78;112650;1223;61111;-89
2021/08/22 03:45:14;;;;;;;7.70;5.20;;;;;;;28.89;39.02;101095.48;112582;1223;63642;-83
2021/08/22 03:48:07;;;;;;;;;;;;;;;;;;;;;
2021/08/22 03:50:38;;;;;;;8.20;5.20;;;;;;;28.90;38.95;101094.34;112797;1220;60983;-84
2021/08/22 03:53:10;;;;;;;6.80;5.10;;;;;;;28.90;38.87;101093.83;112951;1219;61111;-84
2021/08/22 03:55:44;;;;;;;7.90;5.20;;;;;;;28.90;38.97;101093.11;112912;1213;63422;-84
2021/08/22 03:58:12;;;;;;;6.90;5.10;;;;;;;28.90;38.87;101097.57;112948;1219;74632;-83
2021/08/22 04:00:54;;;;;;;6.10;4.80;;;;;;;28.90;38.95;101100.52;112967;1211;60960;-84
2021/08/22 04:03:22;;;;;;;8.20;5.30;;;;;;;28.90;38.91;101098.34;112862;1214;60957;-83
2021/08/22 04:05:53;;;;;;;6.20;4.90;;;;;;;28.90;38.99;101101.07;112841;1219;63580;-87
2021/08/22 04:08:32;;;;;;;7.50;5.40;;;;;;;28.90;38.94;101103.98;112933;1214;65806;-88
2021/08/22 04:11:06;;;;;;;7.70;5.00;;;;;;;28.89;39.11;101103.30;112919;1213;61059;-86
2021/08/22 04:13:35;;;;;;;6.00;4.70;;;;;;;28.90;38.99;101104.84;112910;1214;60960;-89
2021/08/22 04:16:03;;;;;;;7.60;5.40;;;;;;;28.90;39.07;101105.58;112910;1212;60992;-86
2021/08/22 04:18:40;;;;;;;6.40;4.90;;;;;;;28.90;39.09;101108.51;112876;1212;65466;-87
2021/08/22 04:21:15;;;;;;;6.80;5.00;;;;;;;28.90;39.07;101112.10;112895;1212;60952;-86
2021/08/22 04:24:07;;;;;;;7.60;5.20;;;;;;;28.89;38.97;101111.83;112960;1211;60939;-84
2021/08/22 04:26:38;;;;;;;7.60;5.40;;;;;;;28.89;39.01;101112.92;112546;1222;63728;-83
2021/08/22 04:29:24;;;;;;;7.70;5.30;;;;;;;28.89;39.11;101115.81;112541;1222;66741;-88
2021/08/22 04:31:54;;;;;;;7.30;5.00;;;;;;;28.89;39.18;101118.18;112092;1224;61006;-86
2021/08/22 04:34:43;;;;;;;7.20;5.30;;;;;;;28.89;39.28;101120.17;112136;1225;60990;-86
2021/08/22 04:37:22;;;;;;;6.90;4.80;;;;;;;28.89;39.08;101120.31;112143;1226;63631;-84
2021/08/22 04:40:06;;;;;;;6.60;5.00;;;;;;;28.89;39.06;101120.14;112099;1225;65148;-91
2021/08/22 04:42:40;;;;;;;7.30;4.90;;;;;;;28.89;39.16;101120.15;112108;1224;60978;-85
2021/08/22 04:45:17;;;;;;;6.50;5.10;;;;;;;28.90;39.10;101120.30;112255;1224;60930;-85
2021/08/22 04:47:51;;;;;;;8.20;5.10;;;;;;;28.90;39.04;101120.96;112108;1226;63245;-87
2021/08/22 04:50:30;;;;;;;7.80;5.20;;;;;;;28.90;39.18;101121.69;112119;1219;66938;-85
2021/08/22 04:52:59;;;;;;;6.20;5.00;;;;;;;28.90;39.19;101125.89;112106;1226;61018;-89
2021/08/22 04:55:34;;;;;;;7.30;5.00;;;;;;;28.90;39.28;101126.20;112103;1219;61617;-86
2021/08/22 04:58:09;;;;;;;6.60;5.20;;;;;;;28.90;39.14;101128.08;112102;1219;63543;-86
2021/08/22 05:00:39;;;;;;;6.90;5.30;;;;;;;28.90;39.04;101131.49;111990;1219;66791;-84
2021/08/22 05:03:08;;;;;;;7.20;4.90;;;;;;;28.91;39.07;101136.13;111946;1219;60979;-89
2021/08/22 05:05:44;;;;;;;7.30;5.00;;;;;;;28.91;39.22;101140.10;112556;1215;61169;-84
2021/08/22 05:08:16;;;;;;;7.00;5.20;;;;;;;28.90;39.30;101144.17;112536;1215;63650;-92
2021/08/22 05:10:42;;;;;;;7.70;5.00;;;;;;;28.90;39.27;101145.39;112543;1222;66483;-84
2021/08/22 05:13:15;;;;;;;6.70;4.90;;;;;;;28.90;39.12;101142.01;112305;1224;61186;-85
2021/08/22 05:15:59;;;;;;;7.10;5.00;;;;;;;28.90;39.17;101140.17;112557;1223;60956;-89
2021/08/22 05:18:26;;;;;;;8.10;5.20;;;;;;;28.90;39.27;101144.21;112699;1221;64821;-86
2021/08/22 05:21:03;;;;;;;5.80;4.60;;;;;;;28.90;39.37;101149.95;112517;1216;61010;-86
2021/08/22 05:23:29;;;;;;;8.90;5.30;;;;;;;28.90;39.10;101151.80;112703;1222;61092;-86
2021/08/22 05:26:16;;;;;;;6.20;4.80;;;;;;;28.90;39.26;101151.46;112548;1222;60977;-90
2021/08/22 05:29:02;;;;;;;7.10;4.90;;;;;;;28.89;39.27;101153.66;112542;1217;63883;-85
2021/08/22 05:31:27;;;;;;;9.80;5.20;;;;;;;28.89;39.17;101154.05;112567;1222;65824;-86
2021/08/22 05:34:09;;;;;;;6.90;5.00;;;;;;;28.89;39.20;101153.67;112689;1215;61549;-87
2021/08/22 05:36:37;;;;;;;7.30;5.30;;;;;;;28.89;39.21;101154.05;112674;1221;60926;-84
2021/08/22 05:39:08;;;;;;;7.40;5.20;;;;;;;28.89;39.39;101151.33;112522;1222;64767;-87
2021/08/22 05:41:42;;;;;;;7.50;5.10;;;;;;;28.89;39.22;101152.45;112534;1216;66766;-85
2021/08/22 05:44:20;;;;;;;7.00;5.20;;;;;;;28.89;39.15;101159.91;112715;1216;60977;-85
2021/08/22 05:46:52;;;;;;;6.90;4.80;;;;;;;28.89;39.17;101161.00;112521;1216;61024;-88
2021/08/22 05:49:27;;;;;;;6.40;5.10;;;;;;;28.88;39.18;101161.74;112552;1222;63596;-86
2021/08/22 05:52:03;;;;;;;;;;;;;;;;;;;;;
2021/08/22 05:54:29;;;;;;;7.00;5.00;;;;;;;28.88;39.17;101166.61;112518;1223;60925;-89
2021/08/22 05:57:15;;;;;;;6.40;4.90;;;;;;;28.88;39.27;101171.36;112524;1222;61146;-89
2021/08/22 05:59:47;;;;;;;6.40;5.00;;;;;;;28.88;39.26;101172.67;112510;1216;67247;-86
2021/08/22 06:02:15;;;;;;;7.60;5.20;;;;;;;28.88;39.27;101171.20;112520;1216;66503;-82
2021/08/22 06:04:55;;;;;;;6.00;4.70;;;;;;;28.88;39.36;101171.36;112541;1216;61137;-89
2021/08/22 06:07:23;;;;;;;8.00;4.80;;;;;;;28.88;39.42;101171.05;112561;1222;60965;-90
2021/08/22 06:09:52;;;;;;;6.30;4.80;;;;;;;28.88;39.17;101179.36;112551;1216;63733;-87
2021/08/22 06:12:56;;;;;;;5.40;4.60;;;;;;;28.87;39.17;101182.48;112533;1222;66187;-89
2021/08/22 06:15:22;;;;;;;7.90;5.10;;;;;;;28.87;39.16;101184.50;112503;1221;61009;-81
2021/08/22 06:17:57;;;;;;;6.70;5.00;;;;;;;28.87;39.10;101182.52;112347;1216;61016;-87
2021/08/22 06:20:31;;;;;;;7.60;5.30;;;;;;;28.88;39.26;101183.52;112694;1221;72323;-87
2021/08/22 06:23:26;;;;;;;6.50;4.90;;;;;;;28.87;39.27;101187.02;112538;1216;66929;-85
2021/08/22 06:25:54;;;;;;;6.60;4.50;;;;;;;28.87;39.38;101187.95;112559;1222;61063;-91
2021/08/22 06:28:22;;;;;;;6.50;4.90;;;;;;;28.87;39.22;101190.65;112544;1222;60978;-85
2021/08/22 06:30:59;;;;;;;6.80;4.60;;;;;;;28.87;39.17;101187.95;112686;1216;61128;-88
2021/08/22 06:33:32;;;;;;;6.10;4.60;;;;;;;28.88;39.38;101190.06;112487;1216;65945;-86
2021/08/22 06:36:00;;;;;;;7.00;5.20;;;;;;;28.87;39.15;101187.41;112555;1215;60990;-86
2021/08/22 06:38:39;;;;;;;6.40;4.90;;;;;;;28.87;39.23;101185.95;112526;1216;61047;-84
2021/08/22 06:41:07;;;;;;;7.20;5.00;;;;;;;28.87;39.26;101183.60;112106;1219;64849;-85
2021/08/22 06:43:43;;;;;;;7.20;5.20;;;;;;;28.87;39.26;101184.69;112535;1222;66764;-89
2021/08/22 06:46:12;;;;;;;7.60;5.00;;;;;;;28.87;39.35;101188.13;112545;1215;60951;-89
2021/08/22 06:48:43;;;;;;;7.30;4.90;;;;;;;28.88;39.23;101187.39;112524;1222;61002;-86
2021/08/22 06:51:23;;;;;;;7.30;5.10;;;;;;;28.88;39.27;101189.73;112540;1216;64531;-85
2021/08/22 06:53:57;;;;;;;7.20;5.20;;;;;;;28.87;39.11;101190.65;112304;1223;66988;-87
2021/08/22 06:56:32;;;;;;;6.00;4.80;;;;;;;28.87;39.45;101193.20;112538;1216;60913;-87
2021/08/22 06:59:07;;;;;;;7.50;4.90;;;;;;;28.87;39.53;101194.48;112731;1215;60990;-85
2021/08/22 07:01:50;;;;;;;7.90;5.40;;;;;;;28.87;39.36;101193.39;112725;1214;61006;-87
2021/08/22 07:04:19;;;;;;;6.70;4.90;;;;;;;28.87;39.26;101198.46;112503;1215;65852;-85
2021/08/22 07:06:48;;;;;;;7.30;5.20;;;;;;;28.87;39.35;101199.71;112565;1216;60948;-87
2021/08/22 07:09:25;;;;;;;7.40;5.00;;;;;;;28.88;39.29;101196.63;112507;1216;61048;-82
2021/08/22 07:11:54;;;;;;;6.50;5.10;;;;;;;28.88;39.13;101200.05;112378;1216;63665;-88
2021/08/22 07:14:28;;;;;;;6.50;5.40;;;;;;;28.88;39.27;101202.23;112502;1217;66787;-88
2021/08/22 07:17:19;;;;;;;7.90;5.20;;;;;;;28.87;39.47;101204.45;112725;1216;61245;-86
2021/08/22 07:19:49;;;;;;;6.20;5.10;;;;;;;28.87;39.37;101211.19;112477;1222;59821;-91
2021/08/22 07:22:19;;;;;;;7.80;5.00;;;;;;;28.87;39.24;101209.35;112512;1215;64915;-85
2021/08/22 07:24:48;;;;;;;7.00;5.10;;;;;;;28.87;39.33;101212.98;112725;1216;66631;-92
2021/08/22 07:27:26;;;;;;;;;;;;;;;28.87;39.30;101212.58;112532;1216;60982;-85
2021/08/22 07:29:58;;;;;;;6.40;4.80;;;;;;;28.85;39.40;101212.07;112759;1216;61131;-86
2021/08/22 07:32:27;;;;;;;7.50;4.90;;;;;;;28.85;39.46;101212.25;112539;1217;61098;-87
2021/08/22 07:34:52;;;;;;;;;;;;;;;28.85;39.38;101212.39;113007;1219;67200;-86
2021/08/22 07:37:18;;;;;;;6.00;4.90;;;;;;;28.84;39.40;101213.65;113189;1219;60970;-83
2021/08/22 07:39:44;;;;;;;6.30;5.20;;;;;;;28.84;39.45;101212.71;112993;1211;61057;-84
2021/08/22 07:42:30;;;;;;;7.30;4.90;;;;;;;28.84;39.60;101215.03;112905;1212;60959;-84
2021/08/22 07:45:07;;;;;;;7.30;4.90;;;;;;;28.84;39.61;101214.66;112970;1218;65964;-88
2021/08/22 07:47:45;;;;;;;7.50;4.70;;;;;;;28.85;39.48;101218.05;112990;1218;60916;-87
2021/08/22 07:50:14;;;;;;;6.90;4.90;;;;;;;28.85;39.54;101220.41;112763;1215;61120;-86
2021/08/22 07:52:48;;;;;;;7.90;5.10;;;;;;;28.85;39.60;101219.52;112853;1213;64910;-86
2021/08/22 07:55:19;;;;;;;6.20;4.80;;;;;;;28.85;39.68;101218.98;112973;1211;65827;-85
2021/08/22 07:58:05;;;;;;;7.00;5.10;;;;;;;28.85;39.45;101220.03;112976;1219;60984;-84
2021/08/22 08:00:36;;;;;;;7.00;5.00;;;;;;;28.85;39.59;101216.22;112869;1219;61048;-89
2021/08/22 08:03:02;;;;;;;6.30;5.20;;;;;;;28.85;39.43;101218.02;112980;1218;63925;-85
2021/08/22 08:05:31;;;;;;;6.50;5.10;;;;;;;28.86;39.38;101220.88;112786;1219;60964;-91
2021/08/22 08:08:16;;;;;;;6.70;4.70;;;;;;;28.85;39.37;101220.71;112956;1219;61061;-89
2021/08/22 08:11:06;;;;;;;6.70;4.50;;;;;;;28.85;39.48;101220.00;112972;1214;60980;-92
2021/08/22 08:13:34;;;;;;;7.30;5.00;;;;;;;28.85;39.76;101219.62;112994;1219;72732;-86
2021/08/22 08:16:03;;;;;;;;;;;;;;;28.85;39.47;101218.73;113022;1211;65740;-87
2021/08/22 08:18:45;;;;;;;6.90;5.00;;;;;;;28.84;39.45;101218.12;112888;1212;60933;-85
2021/08/22 08:21:26;;;;;;;6.50;4.90;;;;;;;28.84;39.47;101217.57;113014;1211;61114;-87
2021/08/22 08:23:55;;;;;;;7.40;5.20;;;;;;;28.85;39.52;101216.63;112876;1219;65238;-85
2021/08/22 08:26:36;;;;;;;;;;;;;;;;;;;;;
2021/08/22 08:29:05;;;;;;;6.70;4.90;;;;;;;28.85;39.61;101214.27;112985;1219;60983;-85
2021/08/22 08:31:39;;;;;;;6.40;5.10;;;;;;;28.86;39.61;101217.62;112897;1219;61354;-85
2021/08/22 08:34:33;;;;;;;7.10;4.90;;;;;;;28.85;39.54;101212.05;112987;1211;63694;-86
2021/08/22 08:37:02;;;;;;;6.60;5.30;;;;;;;28.85;39.60;101211.33;112492;1215;66683;-85
2021/08/22 08:39:32;;;;;;;6.50;4.90;;;;;;;28.86;39.65;101212.73;112382;1215;61038;-85
2021/08/22 08:42:19;;;;;;;6.30;4.80;;;;;;;28.86;39.63;101214.48;112386;1222;60966;-87
2021/08/22 08:44:54;;;;;;;6.30;4.60;;;;;;;28.86;39.72;101209.41;112524;1215;73712;-85
2021/08/22 08:47:51;;;;;;;6.40;4.60;;;;;;;28.86;39.66;101211.23;112555;1222;65823;-88
2021/08/22 08:50:26;;;;;;;6.80;4.70;;;;;;;28.86;39.68;101212.46;112543;1222;61000;-87
2021/08/22 08:53:03;;;;;;;7.50;4.90;;;;;;;28.87;39.64;101209.69;112484;1216;60911;-83
2021/08/22 08:55:40;;;;;;;8.00;4.90;;;;;;;28.87;39.47;101207.48;112520;1222;63672;-88
2021/08/22 08:58:09;;;;;;;7.90;5.00;;;;;;;28.88;39.64;101208.73;112563;1215;66812;-87
2021/08/22 09:00:38;;;;;;;6.80;4.70;;;;;;;28.89;39.62;101206.82;112489;1222;60939;-85
2021/08/22 09:03:36;;;;;;;6.90;4.80;;;;;;;28.89;39.55;101204.82;112351;1222;61107;-84
2021/08/22 09:06:25;;;;;;;5.90;4.70;;;;;;;28.89;39.66;101202.06;112157;1222;64799;-87
2021/08/22 09:09:38;;;;;;;;;;;;;;;;;;;;;
2021/08/22 09:13:03;;;;;;;6.30;4.80;;;;;;;28.90;39.75;101197.09;112343;1219;61271;-88
2021/08/22 09:16:22;;;;;;;6.90;5.00;;;;;;;28.90;39.48;101195.27;112377;1222;61166;-83
2021/08/22 09:19:18;;;;;;;7.10;5.20;;;;;;;28.90;39.69;101194.34;112224;1216;64270;-83
2021/08/22 09:22:23;;;;;;;7.10;5.00;;;;;;;28.92;39.65;101192.94;112370;1217;75677;-88
2021/08/22 09:25:29;;;;;;;7.00;5.10;;;;;;;28.92;39.54;101187.33;112394;1216;61017;-85
2021/08/22 09:28:35;;;;;;;6.70;5.10;;;;;;;28.92;39.67;101187.10;112390;1222;61294;-85
2021/08/22 09:31:44;;;;;;;6.40;5.00;;;;;;;28.92;39.56;101186.69;112764;1216;63660;-86
2021/08/22 09:35:35;;;;;;;6.30;4.90;;;;;;;28.92;39.58;101184.55;112559;1215;65988;-89
2021/08/22 09:39:09;;;;;;;;;;;;;;;;;;;;;
2021/08/22 09:42:23;;;;;;;;;;;;;;;;;;;;;
2021/08/22 09:45:47;;;;;;;5.60;4.60;;;;;;;28.92;39.84;101187.27;112986;1218;64907;-88
2021/08/22 09:48:56;;;;;;;5.50;4.50;;;;;;;28.92;39.79;101190.50;112986;1218;66933;-87
2021/08/22 09:52:14;;;;;;;5.80;4.60;;;;;;;28.92;39.89;101189.64;112989;1219;61031;-88
2021/08/22 09:55:09;;;;;;;6.40;4.90;;;;;;;28.92;39.77;101191.48;112818;1220;62099;-85
2021/08/22 09:58:37;;;;;;;5.90;4.80;;;;;;;28.92;39.88;101192.00;112400;1216;63852;-88
2021/08/22 10:01:38;;;;;;;6.30;4.70;;;;;;;28.92;39.85;101189.48;112328;1219;66596;-84
2021/08/22 10:04:32;;;;;;;6.80;4.80;;;;;;;28.92;39.84;101184.38;112360;1216;61055;-86
2021/08/22 10:07:25;;;;;;;6.40;4.80;;;;;;;28.92;39.73;101182.38;112352;1224;61002;-88
2021/08/22 10:10:38;;;;;;;6.40;5.00;;;;;;;28.92;39.92;101176.08;112347;1225;62587;-84
2021/08/22 10:13:06;;;;;;;6.40;4.60;;;;;;;28.92;39.78;101176.60;111911;1227;66703;-85
2021/08/22 10:15:32;;;;;;;6.60;4.80;;;;;;;28.93;39.66;101176.50;111766;1222;61143;-84
2021/08/22 10:17:58;;;;;;;6.40;4.90;;;;;;;28.93;39.60;101177.20;111775;1222;61569;-85
2021/08/22 10:20:48;;;;;;;7.30;5.20;;;;;;;28.93;39.82;101176.27;111761;1222;73746;-90
2021/08/22 10:23:54;;;;;;;6.60;5.00;;;;;;;28.94;39.59;101175.15;111865;1220;66598;-86
2021/08/22 10:27:05;;;;;;;6.10;4.70;;;;;;;28.93;39.43;101171.58;111894;1227;60981;-85
2021/08/22 10:30:08;;;;;;;6.60;4.70;;;;;;;28.93;39.56;101172.67;111894;1219;61004;-86
2021/08/22 10:33:05;;;;;;;6.80;5.00;;;;;;;28.93;39.47;101171.79;111736;1228;63695;-89
2021/08/22 10:35:51;;;;;;;7.10;4.80;;;;;;;28.94;39.67;101170.27;111921;1219;65893;-86
2021/08/22 10:38:30;;;;;;;7.10;5.00;;;;;;;28.94;39.67;101169.71;111780;1220;61210;-88
2021/08/22 10:41:01;;;;;;;6.30;4.30;;;;;;;28.94;39.78;101172.55;111802;1228;61189;-88
2021/08/22 10:43:35;;;;;;;6.40;4.90;;;;;;;28.95;39.35;101170.35;111784;1225;73925;-87
2021/08/22 10:47:00;;;;;;;7.00;4.90;;;;;;;28.95;39.47;101173.56;111803;1221;64515;-86
2021/08/22 10:50:11;;;;;;;7.60;4.70;;;;;;;28.95;39.49;101166.34;111229;1223;60976;-81
2021/08/22 10:52:38;;;;;;;6.60;4.80;;;;;;;28.95;39.37;101164.54;111746;1221;61790;-89
2021/08/22 10:55:20;;;;;;;6.60;4.70;;;;;;;28.96;39.51;101165.55;111748;1220;64655;-85
2021/08/22 10:57:51;;;;;;;5.90;4.50;;;;;;;28.96;39.69;101161.41;111770;1221;65198;-86
2021/08/22 11:01:03;;;;;;;6.60;4.60;;;;;;;28.96;39.49;101159.18;111741;1228;61165;-86
2021/08/22 11:03:42;;;;;;;5.60;4.50;;;;;;;28.96;39.48;101156.83;111347;1231;60995;-84
2021/08/22 11:06:22;;;;;;;7.30;5.10;;;;;;;28.97;39.52;101159.70;111310;1224;63857;-86
2021/08/22 11:08:51;;;;;;;;;;;;;;;28.97;39.64;101157.26;111390;1224;65872;-87
2021/08/22 11:11:24;;;;;;;6.00;4.40;;;;;;;28.96;39.60;101156.69;111970;1219;60949;-90
2021/08/22 11:13:56;;;;;;;6.00;4.60;;;;;;;28.96;39.36;101155.01;111822;1220;60978;-90
2021/08/22 11:16:49;;;;;;;7.30;4.90;;;;;;;28.96;39.42;101153.55;111815;1220;63723;-84
2021/08/22 11:19:15;;;;;;;6.40;4.60;;;;;;;28.96;39.11;101149.74;112010;1223;65721;-90
2021/08/22 11:21:44;;;;;;;5.90;4.60;;;;;;;28.97;39.20;101148.22;111970;1219;59094;-88
2021/08/22 11:24:13;;;;;;;6.10;4.70;;;;;;;28.97;39.07;101149.82;111802;1219;61078;-86
2021/08/22 11:26:39;;;;;;;6.30;4.60;;;;;;;28.98;39.23;101144.33;111981;1223;64776;-85
2021/08/22 11:29:05;;;;;;;5.50;4.30;;;;;;;28.98;39.22;101141.77;112264;1217;61504;-85
2021/08/22 11:31:32;;;;;;;7.10;4.80;;;;;;;28.98;39.29;101142.29;112526;1216;60973;-85
2021/08/22 11:34:12;;;;;;;6.70;4.50;;;;;;;28.99;39.23;101141.12;112390;1223;61001;-83
2021/08/22 11:36:46;;;;;;;5.60;4.30;;;;;;;28.99;39.14;101137.65;112381;1219;63550;-85
2021/08/22 11:39:18;;;;;;;6.20;4.60;;;;;;;29.00;39.26;101137.80;112961;1218;74434;-88
2021/08/22 11:41:49;;;;;;;5.80;4.70;;;;;;;29.00;39.13;101138.88;112855;1220;61342;-88
2021/08/22 11:44:29;;;;;;;7.40;4.50;;;;;;;29.00;39.14;101133.75;112876;1214;60968;-86
2021/08/22 11:46:59;;;;;;;5.70;4.70;;;;;;;29.00;39.17;101133.58;112966;1218;72763;-86
2021/08/22 11:49:30;;;;;;;5.80;4.50;;;;;;;29.00;39.23;101131.95;112833;1214;65607;-85
2021/08/22 11:52:17;;;;;;;6.30;5.00;;;;;;;29.01;39.09;101128.45;112997;1212;61055;-88
2021/08/22 11:54:52;;;;;;;6.00;4.40;;;;;;;29.01;39.22;101128.83;112446;1215;61133;-84
2021/08/22 11:57:29;;;;;;;5.70;4.50;;;;;;;29.01;39.01;101121.39;112385;1216;63635;-90
2021/08/22 12:00:09;;;;;;;6.00;4.20;;;;;;;29.01;39.20;101121.90;112411;1216;66518;-86
2021/08/22 12:03:13;;;;;;;;;;;;;;;;;;;;;
2021/08/22 12:06:17;;;;;;;6.30;4.30;;;;;;;29.00;38.94;101118.36;112319;1216;60986;-89
2021/08/22 12:08:46;;;;;;;5.80;4.50;;;;;;;29.00;38.86;101119.30;112025;1226;63596;-84
2021/08/22 12:11:15;;;;;;;6.30;4.50;;;;;;;29.01;38.92;101116.87;112023;1219;65576;-85
2021/08/22 12:13:55;;;;;;;7.70;4.70;;;;;;;29.01;38.93;101116.09;112138;1216;61000;-85
2021/08/22 12:16:37;;;;;;;;;;;;;;;;;;;;;
2021/08/22 12:19:24;;;;;;;5.10;4.40;;;;;;;29.02;38.97;101110.59;112011;1226;65112;-83
2021/08/22 12:21:50;;;;;;;6.60;4.60;;;;;;;29.01;38.90;101110.08;111999;1220;66532;-84
2021/08/22 12:24:34;;;;;;;6.30;4.80;;;;;;;29.02;38.98;101108.56;111943;1222;60975;-85
2021/08/22 12:27:30;;;;;;;6.00;4.50;;;;;;;29.02;38.88;101109.48;112039;1218;61337;-87
2021/08/22 12:30:13;;;;;;;6.00;4.30;;;;;;;29.02;38.92;101108.59;111954;1226;64824;-87
2021/08/22 12:32:41;;;;;;;6.40;4.70;;;;;;;29.02;39.04;101107.45;111985;1219;66738;-89
2021/08/22 12:35:12;;;;;;;6.50;4.50;;;;;;;29.03;38.90;101107.01;112049;1225;61092;-86